Mega Smeralda — ICIU — position and weather

sailwx.info

Track history (hours):
 
Tides and Currents Weather Stations Pressure Air Temp Water Temp Dewpoint Dewpoint Depression Visibility Wind Speed Wind Dir Waves Ship Positions

Mega Smeralda

Last reported at 2015-Sep-03 03:32 UTC. Time now 2015-Sep-03 04:34 UTC.
Position N 42°55' E 006°12'.

Length 171 m; draft 6.4 m.

Type: Passenger vessel. MMSI: 247228600.

Date/timePositionNaut miles runAvg speedWind from/ knotsBaromVisibWave heightAir tempDewpointWater temp
2015-Sep-03 03:32N 42°55' E 006°12'1212.4
2015-Sep-03 02:33N 42°48' E 006°26'1313.3
2015-Sep-03 01:33N 42°41' E 006°41'1313.0
2015-Sep-03 00:33N 42°34' E 006°56'7814.9
2015-Sep-02 19:17N 41°52' E 008°25'28 4.0
2015-Sep-02 12:13N 42°07' E 007°53'9518.5
2015-Sep-02 07:06N 42°58' E 006°05'917.1
2015-Sep-02 06:33N 43°05' E 005°57'2 1.8
2015-Sep-02 05:33N 43°07' E 005°56'4 3.8
2015-Sep-02 04:33N 43°04' E 005°59'1714.0
2015-Sep-02 03:21N 42°53' E 006°16'1114.3
2015-Sep-02 02:33N 42°47' E 006°29'1414.4
2015-Sep-02 01:33N 42°39' E 006°46'1414.4
2015-Sep-02 00:33N 42°31' E 007°02'1414.3
2015-Sep-01 23:33N 42°24' E 007°19'69 4.6
2015-Sep-01 08:33N 43°02' E 006°00'6 5.7
2015-Sep-01 07:31N 43°07' E 005°56'0 0.0
2015-Sep-01 06:31N 43°07' E 005°56'0 0.0
2015-Sep-01 05:33N 43°07' E 005°56'0 0.0
2015-Sep-01 04:33N 43°07' E 005°56'2311.7
2015-Sep-01 02:33N 42°52' E 006°20'1515.2
2015-Sep-01 01:33N 42°43' E 006°37'1515.1
2015-Sep-01 00:33N 42°35' E 006°54'1514.9
2015-Aug-31 23:33N 42°27' E 007°12'1515.0
2015-Aug-31 22:33N 42°19' E 007°29'1614.8
2015-Aug-31 21:27N 42°10' E 007°47'1314.9
2015-Aug-31 20:33N 42°03' E 008°03'1614.7
2015-Aug-31 19:30N 41°55' E 008°20'1314.2
2015-Aug-31 18:33N 41°50' E 008°37'14 1.1
2015-Aug-31 05:32N 41°55' E 008°20'1919.8
2015-Aug-31 04:33N 42°06' E 007°58'2219.8
2015-Aug-31 03:27N 42°17' E 007°32'1920.1
2015-Aug-31 02:30N 42°27' E 007°11'2220.5
2015-Aug-31 01:26N 42°39' E 006°46'2119.7
2015-Aug-31 00:22N 42°50' E 006°21'1718.9
2015-Aug-30 23:28N 42°60' E 006°02'9 9.2
2015-Aug-30 22:31N 43°07' E 005°56'0 0.0
2015-Aug-30 21:31N 43°07' E 005°56'1612.5
2015-Aug-30 20:14N 42°55' E 006°11'1421.0
2015-Aug-30 19:33N 42°54' E 006°31'2020.3
2015-Aug-30 18:33N 42°51' E 006°58'2020.0
2015-Aug-30 17:33N 42°49' E 007°25'2020.0
2015-Aug-30 16:33N 42°46' E 007°52'2020.0
2015-Aug-30 15:33N 42°44' E 008°19'2020.2
2015-Aug-30 14:33N 42°42' E 008°46'8 6.3
2015-Aug-30 13:19N 42°38' E 008°56'1 0.8
2015-Aug-30 12:33N 42°39' E 008°57'1717.7
2015-Aug-30 11:33N 42°43' E 008°34'2220.1
2015-Aug-30 10:29N 42°45' E 008°04'1920.2
2015-Aug-30 09:33N 42°48' E 007°39'2019.8
2015-Aug-30 08:32N 42°50' E 007°12'2219.9
2015-Aug-30 07:26N 42°53' E 006°42'3418.0
2015-Aug-30 05:33N 43°04' E 005°59'4 3.6
2015-Aug-30 04:32N 43°07' E 005°56'1 1.2
2015-Aug-30 03:34N 43°06' E 005°55'1615.6
2015-Aug-30 02:34N 42°56' E 006°11'1919.1
2015-Aug-30 01:33N 42°57' E 006°37'1919.3
2015-Aug-30 00:33N 42°58' E 007°03'2319.2
2015-Aug-29 23:20N 42°60' E 007°35'1519.7
2015-Aug-29 22:33N 42°60' E 007°57'2019.9
2015-Aug-29 21:33N 43°02' E 008°24'2019.9
2015-Aug-29 20:34N 43°02' E 008°51'2019.9
2015-Aug-29 19:33N 43°03' E 009°18'1615.5
2015-Aug-29 18:33N 42°52' E 009°32'7 2.2
2015-Aug-29 15:27N 42°49' E 009°40'2218.3
2015-Aug-29 14:13N 43°06' E 010°00'1421.0
2015-Aug-29 13:32N 43°20' E 010°07'1515.7
2015-Aug-29 12:33N 43°33' E 010°17'0 0.4
2015-Aug-29 11:27N 43°33' E 010°18'4614.9
2015-Aug-29 08:22N 42°58' E 009°37'12 4.2
2015-Aug-29 05:28N 42°46' E 009°32'1618.0
2015-Aug-29 04:33N 43°02' E 009°27'2019.1
2015-Aug-29 03:30N 43°03' E 008°59'1919.6
2015-Aug-29 02:33N 43°02' E 008°34'2619.8
2015-Aug-29 01:16N 43°00' E 007°59'1819.9
2015-Aug-29 00:23N 42°59' E 007°35'1619.6
2015-Aug-28 23:33N 42°58' E 007°13'2019.5
2015-Aug-28 22:33N 42°57' E 006°46'1918.8
2015-Aug-28 21:34N 42°56' E 006°21'1717.1
2015-Aug-28 20:33N 43°03' E 005°59'5 4.4
2015-Aug-28 19:31N 43°07' E 005°56'0 0.0
2015-Aug-28 18:33N 43°07' E 005°56'1613.7
2015-Aug-28 17:24N 42°56' E 006°12'1720.7
2015-Aug-28 16:33N 42°53' E 006°35'2020.1
2015-Aug-28 15:33N 42°51' E 007°02'2020.1
2015-Aug-28 14:34N 42°48' E 007°29'2019.7
2015-Aug-28 13:33N 42°46' E 007°56'2119.6
2015-Aug-28 12:30N 42°43' E 008°24'1919.8
2015-Aug-28 11:33N 42°41' E 008°49'6 5.4
2015-Aug-28 10:31N 42°38' E 008°56'5 5.1
2015-Aug-28 09:33N 42°43' E 008°53'2120.1
2015-Aug-28 08:31N 42°56' E 008°31'2320.1
2015-Aug-28 07:21N 43°10' E 008°06'1620.1
2015-Aug-28 06:33N 43°21' E 007°49'2019.9
2015-Aug-28 05:33N 43°33' E 007°28'11 9.5
2015-Aug-28 04:23N 43°42' E 007°17'1 1.4
2015-Aug-28 03:34N 43°40' E 007°17'1615.7
2015-Aug-28 02:33N 43°26' E 007°27'1616.5
2015-Aug-28 01:34N 43°12' E 007°37'1716.6
2015-Aug-28 00:33N 42°57' E 007°47'1716.6
2015-Aug-27 23:33N 42°42' E 007°57'2516.5
2015-Aug-27 22:04N 42°20' E 008°11'816.4
2015-Aug-27 21:33N 42°12' E 008°16'1716.6
2015-Aug-27 20:33N 41°57' E 008°26'14 2.8
2015-Aug-27 15:28N 42°01' E 008°08'5918.5
2015-Aug-27 12:15N 42°32' E 007°00'1418.9
2015-Aug-27 11:32N 42°40' E 006°44'1919.3
2015-Aug-27 10:34N 42°50' E 006°23'2118.3
2015-Aug-27 09:24N 43°02' E 005°59'5 6.1
2015-Aug-27 08:32N 43°07' E 005°56'0 0.0
2015-Aug-27 07:32N 43°07' E 005°56'0 0.0
2015-Aug-27 06:32N 43°07' E 005°56'0 0.0
2015-Aug-27 05:32N 43°07' E 005°56'18 9.0
2015-Aug-27 03:33N 42°54' E 006°12'1313.4
2015-Aug-27 02:34N 42°47' E 006°28'1413.7
2015-Aug-27 01:33N 42°40' E 006°44'1313.4
2015-Aug-27 00:34N 42°33' E 006°59'1515.2
2015-Aug-26 23:33N 42°25' E 007°17'3415.2
2015-Aug-26 21:20N 42°07' E 007°55'1215.0
2015-Aug-26 20:33N 42°00' E 008°08'3 0.4
2015-Aug-26 14:05N 41°59' E 008°12'6618.2
2015-Aug-26 10:26N 42°34' E 006°56'1618.5
2015-Aug-26 09:33N 42°43' E 006°37'2117.9
2015-Aug-26 08:22N 42°54' E 006°12'1417.5
2015-Aug-26 07:33N 43°04' E 005°58'3 3.5
2015-Aug-26 06:33N 43°07' E 005°56'0 0.0
2015-Aug-26 05:33N 43°07' E 005°56'0 0.0
2015-Aug-26 04:33N 43°07' E 005°56'2 2.0
2015-Aug-26 03:33N 43°05' E 005°57'1914.5
2015-Aug-26 02:16N 42°53' E 006°16'2916.3
2015-Aug-26 00:30N 42°37' E 006°49'3116.0
2015-Aug-25 22:33N 42°21' E 007°25'76 5.1
2015-Aug-25 07:33N 43°03' E 005°59'4 4.4
2015-Aug-25 06:33N 43°07' E 005°56'3 3.2
2015-Aug-25 05:33N 43°04' E 005°58'1817.7
2015-Aug-25 04:34N 42°53' E 006°16'1919.3
2015-Aug-25 03:33N 42°42' E 006°39'3918.9
2015-Aug-25 01:30N 42°21' E 007°23'61 5.4
2015-Aug-24 14:15N 43°22' E 007°30'1419.6
2015-Aug-24 13:33N 43°34' E 007°21'8 7.6
2015-Aug-24 12:31N 43°42' E 007°17'1212.5
2015-Aug-24 11:33N 43°31' E 007°24'  
Track history (hours):
 
Tides and Currents Weather Stations Pressure Air Temp Water Temp Dewpoint Dewpoint Depression Visibility Wind Speed Wind Dir Waves Ship Positions

Mega Smeralda

Last reported at 2015-Sep-03 03:32 UTC. Time now 2015-Sep-03 04:34 UTC.
Position N 42°55' E 006°12'.

Length 171 m; draft 6.4 m.

Type: Passenger vessel. MMSI: 247228600.

Date/timePositionNaut miles runAvg speedWind from/ knotsBaromVisibWave heightAir tempDewpointWater temp
2015-Sep-03 03:32N 42°55' E 006°12'1212.4
2015-Sep-03 02:33N 42°48' E 006°26'1313.3
2015-Sep-03 01:33N 42°41' E 006°41'1313.0
2015-Sep-03 00:33N 42°34' E 006°56'7814.9
2015-Sep-02 19:17N 41°52' E 008°25'28 4.0
2015-Sep-02 12:13N 42°07' E 007°53'9518.5
2015-Sep-02 07:06N 42°58' E 006°05'917.1
2015-Sep-02 06:33N 43°05' E 005°57'2 1.8
2015-Sep-02 05:33N 43°07' E 005°56'4 3.8
2015-Sep-02 04:33N 43°04' E 005°59'1714.0
2015-Sep-02 03:21N 42°53' E 006°16'1114.3
2015-Sep-02 02:33N 42°47' E 006°29'1414.4
2015-Sep-02 01:33N 42°39' E 006°46'1414.4
2015-Sep-02 00:33N 42°31' E 007°02'1414.3
2015-Sep-01 23:33N 42°24' E 007°19'69 4.6
2015-Sep-01 08:33N 43°02' E 006°00'6 5.7
2015-Sep-01 07:31N 43°07' E 005°56'0 0.0
2015-Sep-01 06:31N 43°07' E 005°56'0 0.0
2015-Sep-01 05:33N 43°07' E 005°56'0 0.0
2015-Sep-01 04:33N 43°07' E 005°56'2311.7
2015-Sep-01 02:33N 42°52' E 006°20'1515.2
2015-Sep-01 01:33N 42°43' E 006°37'1515.1
2015-Sep-01 00:33N 42°35' E 006°54'1514.9
2015-Aug-31 23:33N 42°27' E 007°12'1515.0
2015-Aug-31 22:33N 42°19' E 007°29'1614.8
2015-Aug-31 21:27N 42°10' E 007°47'1314.9
2015-Aug-31 20:33N 42°03' E 008°03'1614.7
2015-Aug-31 19:30N 41°55' E 008°20'1314.2
2015-Aug-31 18:33N 41°50' E 008°37'14 1.1
2015-Aug-31 05:32N 41°55' E 008°20'1919.8
2015-Aug-31 04:33N 42°06' E 007°58'2219.8
2015-Aug-31 03:27N 42°17' E 007°32'1920.1
2015-Aug-31 02:30N 42°27' E 007°11'2220.5
2015-Aug-31 01:26N 42°39' E 006°46'2119.7
2015-Aug-31 00:22N 42°50' E 006°21'1718.9
2015-Aug-30 23:28N 42°60' E 006°02'9 9.2
2015-Aug-30 22:31N 43°07' E 005°56'0 0.0
2015-Aug-30 21:31N 43°07' E 005°56'1612.5
2015-Aug-30 20:14N 42°55' E 006°11'1421.0
2015-Aug-30 19:33N 42°54' E 006°31'2020.3
2015-Aug-30 18:33N 42°51' E 006°58'2020.0
2015-Aug-30 17:33N 42°49' E 007°25'2020.0
2015-Aug-30 16:33N 42°46' E 007°52'2020.0
2015-Aug-30 15:33N 42°44' E 008°19'2020.2
2015-Aug-30 14:33N 42°42' E 008°46'8 6.3
2015-Aug-30 13:19N 42°38' E 008°56'1 0.8
2015-Aug-30 12:33N 42°39' E 008°57'1717.7
2015-Aug-30 11:33N 42°43' E 008°34'2220.1
2015-Aug-30 10:29N 42°45' E 008°04'1920.2
2015-Aug-30 09:33N 42°48' E 007°39'2019.8
2015-Aug-30 08:32N 42°50' E 007°12'2219.9
2015-Aug-30 07:26N 42°53' E 006°42'3418.0
2015-Aug-30 05:33N 43°04' E 005°59'4 3.6
2015-Aug-30 04:32N 43°07' E 005°56'1 1.2
2015-Aug-30 03:34N 43°06' E 005°55'1615.6
2015-Aug-30 02:34N 42°56' E 006°11'1919.1
2015-Aug-30 01:33N 42°57' E 006°37'1919.3
2015-Aug-30 00:33N 42°58' E 007°03'2319.2
2015-Aug-29 23:20N 42°60' E 007°35'1519.7
2015-Aug-29 22:33N 42°60' E 007°57'2019.9
2015-Aug-29 21:33N 43°02' E 008°24'2019.9
2015-Aug-29 20:34N 43°02' E 008°51'2019.9
2015-Aug-29 19:33N 43°03' E 009°18'1615.5
2015-Aug-29 18:33N 42°52' E 009°32'7 2.2
2015-Aug-29 15:27N 42°49' E 009°40'2218.3
2015-Aug-29 14:13N 43°06' E 010°00'1421.0
2015-Aug-29 13:32N 43°20' E 010°07'1515.7
2015-Aug-29 12:33N 43°33' E 010°17'0 0.4
2015-Aug-29 11:27N 43°33' E 010°18'4614.9
2015-Aug-29 08:22N 42°58' E 009°37'12 4.2
2015-Aug-29 05:28N 42°46' E 009°32'1618.0
2015-Aug-29 04:33N 43°02' E 009°27'2019.1
2015-Aug-29 03:30N 43°03' E 008°59'1919.6
2015-Aug-29 02:33N 43°02' E 008°34'2619.8
2015-Aug-29 01:16N 43°00' E 007°59'1819.9
2015-Aug-29 00:23N 42°59' E 007°35'1619.6
2015-Aug-28 23:33N 42°58' E 007°13'2019.5
2015-Aug-28 22:33N 42°57' E 006°46'1918.8
2015-Aug-28 21:34N 42°56' E 006°21'1717.1
2015-Aug-28 20:33N 43°03' E 005°59'5 4.4
2015-Aug-28 19:31N 43°07' E 005°56'0 0.0
2015-Aug-28 18:33N 43°07' E 005°56'1613.7
2015-Aug-28 17:24N 42°56' E 006°12'1720.7
2015-Aug-28 16:33N 42°53' E 006°35'2020.1
2015-Aug-28 15:33N 42°51' E 007°02'2020.1
2015-Aug-28 14:34N 42°48' E 007°29'2019.7
2015-Aug-28 13:33N 42°46' E 007°56'2119.6
2015-Aug-28 12:30N 42°43' E 008°24'1919.8
2015-Aug-28 11:33N 42°41' E 008°49'6 5.4
2015-Aug-28 10:31N 42°38' E 008°56'5 5.1
2015-Aug-28 09:33N 42°43' E 008°53'2120.1
2015-Aug-28 08:31N 42°56' E 008°31'2320.1
2015-Aug-28 07:21N 43°10' E 008°06'1620.1
2015-Aug-28 06:33N 43°21' E 007°49'2019.9
2015-Aug-28 05:33N 43°33' E 007°28'11 9.5
2015-Aug-28 04:23N 43°42' E 007°17'1 1.4
2015-Aug-28 03:34N 43°40' E 007°17'1615.7
2015-Aug-28 02:33N 43°26' E 007°27'1616.5
2015-Aug-28 01:34N 43°12' E 007°37'1716.6
2015-Aug-28 00:33N 42°57' E 007°47'1716.6
2015-Aug-27 23:33N 42°42' E 007°57'2516.5
2015-Aug-27 22:04N 42°20' E 008°11'816.4
2015-Aug-27 21:33N 42°12' E 008°16'1716.6
2015-Aug-27 20:33N 41°57' E 008°26'14 2.8
2015-Aug-27 15:28N 42°01' E 008°08'5918.5
2015-Aug-27 12:15N 42°32' E 007°00'1418.9
2015-Aug-27 11:32N 42°40' E 006°44'1919.3
2015-Aug-27 10:34N 42°50' E 006°23'2118.3
2015-Aug-27 09:24N 43°02' E 005°59'5 6.1
2015-Aug-27 08:32N 43°07' E 005°56'0 0.0
2015-Aug-27 07:32N 43°07' E 005°56'0 0.0
2015-Aug-27 06:32N 43°07' E 005°56'0 0.0
2015-Aug-27 05:32N 43°07' E 005°56'18 9.0
2015-Aug-27 03:33N 42°54' E 006°12'1313.4
2015-Aug-27 02:34N 42°47' E 006°28'1413.7
2015-Aug-27 01:33N 42°40' E 006°44'1313.4
2015-Aug-27 00:34N 42°33' E 006°59'1515.2
2015-Aug-26 23:33N 42°25' E 007°17'3415.2
2015-Aug-26 21:20N 42°07' E 007°55'1215.0
2015-Aug-26 20:33N 42°00' E 008°08'3 0.4
2015-Aug-26 14:05N 41°59' E 008°12'6618.2
2015-Aug-26 10:26N 42°34' E 006°56'1618.5
2015-Aug-26 09:33N 42°43' E 006°37'2117.9
2015-Aug-26 08:22N 42°54' E 006°12'1417.5
2015-Aug-26 07:33N 43°04' E 005°58'3 3.5
2015-Aug-26 06:33N 43°07' E 005°56'0 0.0
2015-Aug-26 05:33N 43°07' E 005°56'0 0.0
2015-Aug-26 04:33N 43°07' E 005°56'2 2.0
2015-Aug-26 03:33N 43°05' E 005°57'1914.5
2015-Aug-26 02:16N 42°53' E 006°16'2916.3
2015-Aug-26 00:30N 42°37' E 006°49'3116.0
2015-Aug-25 22:33N 42°21' E 007°25'76 5.1
2015-Aug-25 07:33N 43°03' E 005°59'4 4.4
2015-Aug-25 06:33N 43°07' E 005°56'3 3.2
2015-Aug-25 05:33N 43°04' E 005°58'1817.7
2015-Aug-25 04:34N 42°53' E 006°16'1919.3
2015-Aug-25 03:33N 42°42' E 006°39'3918.9
2015-Aug-25 01:30N 42°21' E 007°23'61 5.4
2015-Aug-24 14:15N 43°22' E 007°30'1419.6
2015-Aug-24 13:33N 43°34' E 007°21'8 7.6
2015-Aug-24 12:31N 43°42' E 007°17'1212.5
2015-Aug-24 11:33N 43°31' E 007°24'  

Dump ship's entire track history